Time;durP1;ratioP1;P1;durP2;ratioP2;P2;SDS_P1;SDS_P2;PMS_P1;PMS_P2;Temp;Humidity;BMP_temperature;BMP_pressure;BME280_temperature;BME280_humidity;BME280_pressure;Samples;Min_cycle;Max_cycle;Signal;HPM_P1;HPM_P2
2021/05/23 00:01:32;;;;;;;6.13;3.08;;;15.50;75.30;;;;;;5075669;28;20024;-81
2021/05/23 00:03:58;;;;;;;4.75;3.00;;;15.40;75.70;;;;;;5057573;28;20470;-81
2021/05/23 00:06:23;;;;;;;4.00;2.80;;;15.40;76.00;;;;;;5075534;28;20025;-81
2021/05/23 00:08:49;;;;;;;4.80;2.85;;;15.30;76.00;;;;;;5057502;28;20470;-81
2021/05/23 00:11:15;;;;;;;5.40;2.80;;;15.30;76.20;;;;;;5057123;28;20052;-80
2021/05/23 00:13:47;;;;;;;5.53;2.50;;;15.30;76.20;;;;;;5075402;28;20031;-81
2021/05/23 00:16:20;;;;;;;3.88;2.90;;;15.30;76.70;;;;;;5075439;28;20459;-81
2021/05/23 00:18:49;;;;;;;2.97;2.78;;;15.30;76.90;;;;;;5057415;28;20025;-81
2021/05/23 00:21:18;;;;;;;5.32;2.80;;;15.30;77.00;;;;;;5075363;28;20036;-81
2021/05/23 00:23:43;;;;;;;4.90;2.97;;;15.30;77.10;;;;;;5056695;28;20020;-81
2021/05/23 00:26:09;;;;;;;3.47;2.58;;;15.30;77.30;;;;;;5074575;28;20027;-81
2021/05/23 00:28:36;;;;;;;5.15;3.22;;;15.20;77.20;;;;;;5056182;28;20024;-80
2021/05/23 00:31:03;;;;;;;4.22;2.78;;;15.20;77.40;;;;;;5056835;28;20028;-81
2021/05/23 00:33:28;;;;;;;2.97;2.70;;;15.20;78.10;;;;;;5057215;28;20024;-81
2021/05/23 00:35:55;;;;;;;4.35;2.70;;;15.10;77.70;;;;;;5075077;28;20702;-81
2021/05/23 00:38:21;;;;;;;3.22;2.92;;;15.10;78.10;;;;;;5074911;28;20020;-80
2021/05/23 00:40:46;;;;;;;5.70;3.10;;;15.10;78.40;;;;;;5074690;28;20115;-81
2021/05/23 00:43:15;;;;;;;3.72;2.72;;;15.10;78.60;;;;;;5074966;28;20027;-81
2021/05/23 00:45:41;;;;;;;2.95;2.33;;;15.00;78.50;;;;;;5056989;28;20367;-81
2021/05/23 00:48:08;;;;;;;3.78;2.53;;;15.10;78.70;;;;;;5074877;28;20024;-81
2021/05/23 00:50:34;;;;;;;2.58;2.38;;;15.10;78.80;;;;;;5074697;28;20024;-81
2021/05/23 00:53:01;;;;;;;3.05;2.60;;;15.10;78.90;;;;;;5074374;28;20090;-81
2021/05/23 00:55:27;;;;;;;3.08;2.88;;;15.10;78.70;;;;;;5056781;28;20024;-81
2021/05/23 00:57:54;;;;;;;3.90;2.80;;;15.10;78.80;;;;;;5074479;28;20478;-81
2021/05/23 01:00:54;;;;;;;6.38;2.70;;;15.00;78.80;;;;;;5056639;28;20023;-81
2021/05/23 01:03:29;;;;;;;;;;;15.10;79.40;;;;;;5054994;28;20455;-81
2021/05/23 01:06:04;;;;;;;6.28;3.80;;;15.00;79.30;;;;;;5036327;28;19905;-81
2021/05/23 01:08:31;;;;;;;8.18;5.05;;;15.00;79.00;;;;;;5054426;28;20021;-81
2021/05/23 01:11:06;;;;;;;10.23;6.03;;;15.00;79.40;;;;;;5036230;28;20490;-81
2021/05/23 01:13:38;;;;;;;10.60;6.88;;;14.90;79.70;;;;;;5054219;28;20021;-81
2021/05/23 01:16:21;;;;;;;11.23;6.47;;;14.90;79.70;;;;;;5054044;28;20025;-81
2021/05/23 01:18:50;;;;;;;10.98;6.88;;;14.90;80.00;;;;;;5054318;28;20025;-81
2021/05/23 01:21:20;;;;;;;10.82;7.07;;;14.90;80.10;;;;;;5053486;28;20047;-81
2021/05/23 01:24:07;;;;;;;10.60;6.75;;;14.90;80.40;;;;;;5054133;28;20025;-81
2021/05/23 01:26:38;;;;;;;13.50;6.85;;;14.90;80.70;;;;;;5036584;28;20044;-81
2021/05/23 01:29:07;;;;;;;8.18;5.90;;;14.90;80.90;;;;;;5054714;28;20094;-81
2021/05/23 01:31:35;;;;;;;11.27;6.53;;;15.00;81.20;;;;;;5073900;28;20021;-81
2021/05/23 01:34:01;;;;;;;10.13;6.57;;;15.00;81.30;;;;;;5073658;28;20355;-81
2021/05/23 01:36:32;;;;;;;8.43;5.45;;;15.00;81.20;;;;;;5073973;28;20093;-81
2021/05/23 01:38:58;;;;;;;;;;;15.10;81.30;;;;;;5056494;28;20032;-81
2021/05/23 01:41:24;;;;;;;8.43;4.30;;;15.10;81.30;;;;;;5055848;28;19905;-81
2021/05/23 01:43:51;;;;;;;6.25;4.53;;;15.20;81.10;;;;;;5073859;28;20109;-81
2021/05/23 01:46:17;;;;;;;6.05;4.30;;;15.20;81.00;;;;;;5055864;28;20777;-82
2021/05/23 01:48:42;;;;;;;6.25;4.63;;;15.20;81.10;;;;;;5073548;28;20021;-80
2021/05/23 01:51:09;;;;;;;5.50;4.10;;;15.30;81.10;;;;;;5073371;28;20127;-80
2021/05/23 01:53:36;;;;;;;4.88;4.35;;;15.40;80.90;;;;;;5055680;28;20021;-81
2021/05/23 01:56:05;;;;;;;5.18;4.18;;;15.40;80.80;;;;;;5073580;28;20024;-81
2021/05/23 01:58:31;;;;;;;5.20;4.03;;;15.50;80.70;;;;;;5055847;28;20017;-81
2021/05/23 02:00:58;;;;;;;5.68;3.80;;;15.60;80.30;;;;;;5055503;28;20029;-81
2021/05/23 02:03:24;;;;;;;6.15;3.90;;;15.70;80.20;;;;;;5055442;28;20501;-82
2021/05/23 02:05:55;;;;;;;4.25;3.47;;;15.80;80.10;;;;;;5055569;28;20036;-81
2021/05/23 02:08:23;;;;;;;3.97;3.40;;;15.80;79.70;;;;;;5073398;28;20668;-81
2021/05/23 02:10:52;;;;;;;8.48;3.97;;;15.90;79.70;;;;;;5073046;28;20060;-80
2021/05/23 02:13:19;;;;;;;4.95;3.17;;;16.00;79.40;;;;;;5055542;28;20036;-83
2021/05/23 02:15:45;;;;;;;3.70;3.33;;;16.00;79.10;;;;;;5073602;28;20486;-83
2021/05/23 02:18:11;;;;;;;3.50;3.03;;;16.00;78.80;;;;;;5055562;28;20033;-83
2021/05/23 02:20:37;;;;;;;4.60;3.08;;;16.10;78.60;;;;;;5055510;28;20024;-83
2021/05/23 02:23:05;;;;;;;2.80;2.60;;;16.10;78.30;;;;;;5073572;28;20074;-84
2021/05/23 02:25:32;;;;;;;2.60;2.40;;;16.10;78.20;;;;;;5055497;28;20029;-83
2021/05/23 02:28:06;;;;;;;2.42;2.22;;;16.10;78.10;;;;;;5073422;28;20037;-83
2021/05/23 02:30:35;;;;;;;3.03;1.90;;;16.10;78.00;;;;;;5073236;28;20109;-84
2021/05/23 02:33:02;;;;;;;2.42;2.20;;;16.10;78.00;;;;;;5075427;28;20024;-91
2021/05/23 02:35:29;;;;;;;3.42;2.15;;;16.20;77.90;;;;;;5059721;28;20428;-85
2021/05/23 02:37:55;;;;;;;2.50;2.28;;;16.20;77.90;;;;;;5059423;28;20042;-84
2021/05/23 02:40:23;;;;;;;2.50;2.30;;;16.20;77.90;;;;;;5059221;28;20020;-83
2021/05/23 02:42:50;;;;;;;2.90;2.40;;;16.20;78.10;;;;;;5059444;28;20020;-84
2021/05/23 02:45:17;;;;;;;2.95;2.63;;;16.30;78.10;;;;;;5077133;28;20103;-86
2021/05/23 02:47:45;;;;;;;2.60;2.40;;;16.30;78.00;;;;;;5077175;28;20021;-84
2021/05/23 02:50:15;;;;;;;3.92;2.60;;;16.30;78.00;;;;;;5059090;28;20379;-84
2021/05/23 02:52:40;;;;;;;57.13;8.02;;;16.40;78.00;;;;;;5077425;28;20025;-83
2021/05/23 02:55:07;;;;;;;3.25;2.65;;;16.40;78.00;;;;;;5059028;28;20029;-86
2021/05/23 02:57:39;;;;;;;3.50;2.47;;;16.40;77.90;;;;;;5058791;28;20416;-84
2021/05/23 03:00:06;;;;;;;2.75;2.45;;;16.40;78.00;;;;;;5076504;28;20374;-83
2021/05/23 03:02:33;;;;;;;3.42;2.05;;;16.40;78.00;;;;;;5077200;28;20028;-85
2021/05/23 03:04:59;;;;;;;3.10;2.58;;;16.40;78.10;;;;;;5076757;28;20025;-83
2021/05/23 03:07:25;;;;;;;3.42;2.60;;;16.40;78.30;;;;;;5076694;28;20103;-83
2021/05/23 03:09:50;;;;;;;3.47;2.58;;;16.50;78.40;;;;;;5076727;28;20032;-83
2021/05/23 03:12:16;;;;;;;2.92;2.53;;;16.50;78.50;;;;;;5076281;28;20060;-87
2021/05/23 03:14:43;;;;;;;4.25;2.40;;;16.50;78.70;;;;;;5076778;28;20020;-88
2021/05/23 03:17:10;;;;;;;4.43;2.50;;;16.50;79.20;;;;;;5058787;28;20017;-85
2021/05/23 03:19:39;;;;;;;3.85;2.67;;;16.50;78.70;;;;;;5058641;28;20028;-85
2021/05/23 03:22:07;;;;;;;2.95;2.38;;;16.50;78.90;;;;;;5076378;28;20042;-85
2021/05/23 03:24:33;;;;;;;2.42;2.17;;;16.50;79.30;;;;;;5058639;28;20025;-85
2021/05/23 03:27:00;;;;;;;3.28;2.30;;;16.50;79.40;;;;;;5058259;28;20055;-86
2021/05/23 03:29:25;;;;;;;1.98;1.85;;;16.50;79.40;;;;;;5076178;28;20024;-85
2021/05/23 03:31:51;;;;;;;2.45;2.20;;;16.50;79.60;;;;;;5076502;28;20082;-87
2021/05/23 03:34:17;;;;;;;4.75;2.00;;;16.60;79.80;;;;;;5058508;28;20051;-90
2021/05/23 03:36:42;;;;;;;3.05;2.40;;;16.50;79.80;;;;;;5058752;28;20093;-87
2021/05/23 03:39:08;;;;;;;2.40;2.20;;;16.60;80.00;;;;;;5058803;28;20025;-87
2021/05/23 03:41:35;;;;;;;3.38;2.40;;;16.60;80.30;;;;;;5058476;28;20028;-89
2021/05/23 03:44:01;;;;;;;2.30;2.08;;;16.60;80.50;;;;;;5058437;28;20036;-89
2021/05/23 03:46:26;;;;;;;2.42;1.95;;;16.60;80.70;;;;;;5058565;28;20028;-88
2021/05/23 03:48:52;;;;;;;2.40;2.20;;;16.60;80.70;;;;;;5058252;28;20031;-85
2021/05/23 03:51:18;;;;;;;2.30;2.10;;;16.60;80.80;;;;;;5057833;28;20094;-85
2021/05/23 03:53:43;;;;;;;2.38;1.92;;;16.70;81.10;;;;;;5075878;28;20020;-86
2021/05/23 03:56:09;;;;;;;3.88;2.47;;;16.60;81.20;;;;;;5075897;28;20024;-87
2021/05/23 03:58:35;;;;;;;2.42;2.22;;;16.60;81.30;;;;;;5058070;28;20466;-85
2021/05/23 04:01:01;;;;;;;4.40;2.35;;;16.60;81.50;;;;;;5057962;28;20029;-87
2021/05/23 04:03:28;;;;;;;5.43;2.30;;;16.60;82.20;;;;;;5058006;28;20032;-87
2021/05/23 04:05:54;;;;;;;2.55;2.17;;;16.60;83.00;;;;;;5058130;28;20081;-87
2021/05/23 04:08:20;;;;;;;2.55;2.15;;;16.60;83.80;;;;;;5058163;28;20020;-87
2021/05/23 04:10:58;;;;;;;2.30;2.10;;;16.60;84.00;;;;;;5075410;28;20127;-89
2021/05/23 04:13:25;;;;;;;3.15;2.28;;;16.60;84.20;;;;;;5076081;28;20021;-88
2021/05/23 04:15:50;;;;;;;2.95;2.30;;;16.60;84.30;;;;;;5076010;28;20074;-88
2021/05/23 04:18:16;;;;;;;3.17;2.13;;;16.60;84.60;;;;;;5076034;28;20055;-89
2021/05/23 04:20:42;;;;;;;4.30;2.80;;;16.60;84.70;;;;;;5058103;28;20112;-88
2021/05/23 04:23:08;;;;;;;3.83;3.03;;;16.70;85.00;;;;;;5075885;28;20192;-91
2021/05/23 04:25:34;;;;;;;2.60;2.40;;;16.70;84.80;;;;;;5075639;28;20041;-94
2021/05/23 04:27:59;;;;;;;3.65;2.60;;;16.70;84.80;;;;;;5058179;28;20535;-94
2021/05/23 04:30:26;;;;;;;5.05;2.30;;;16.70;84.90;;;;;;5058107;28;20101;-89
2021/05/23 04:32:56;;;;;;;2.90;2.40;;;16.70;85.00;;;;;;5057939;28;20467;-90
2021/05/23 04:35:22;;;;;;;2.45;2.20;;;16.80;85.30;;;;;;5075671;28;20017;-90
2021/05/23 04:37:48;;;;;;;4.90;2.53;;;16.80;85.10;;;;;;5075285;28;20047;-89
2021/05/23 04:40:16;;;;;;;2.60;2.40;;;16.90;85.20;;;;;;5075198;28;20463;-88
2021/05/23 04:42:42;;;;;;;2.90;2.60;;;16.90;85.20;;;;;;5057781;28;20471;-90
2021/05/23 04:45:09;;;;;;;3.50;2.42;;;16.90;85.60;;;;;;5075422;28;20099;-82
2021/05/23 04:47:35;;;;;;;3.88;2.80;;;16.90;86.00;;;;;;5075227;28;20025;-88
2021/05/23 04:50:03;;;;;;;2.90;2.47;;;16.90;85.90;;;;;;5056901;28;20539;-85
2021/05/23 04:52:28;;;;;;;2.75;2.47;;;17.10;85.70;;;;;;5075097;28;20054;-86
2021/05/23 04:54:56;;;;;;;2.70;2.50;;;17.00;85.70;;;;;;5074079;28;20058;-86
2021/05/23 04:57:22;;;;;;;3.28;2.47;;;17.10;85.70;;;;;;5056871;28;20017;-83
2021/05/23 04:59:50;;;;;;;5.43;2.40;;;17.20;85.70;;;;;;5056750;28;20035;-83
2021/05/23 05:02:16;;;;;;;4.50;2.60;;;17.30;85.80;;;;;;5056749;28;20025;-86
2021/05/23 05:04:42;;;;;;;3.15;2.83;;;17.40;85.70;;;;;;5056499;28;20021;-83
2021/05/23 05:07:07;;;;;;;4.13;2.60;;;17.40;85.30;;;;;;5056375;28;20075;-83
2021/05/23 05:09:33;;;;;;;4.25;2.90;;;17.50;85.30;;;;;;5056583;28;20473;-82
2021/05/23 05:11:59;;;;;;;3.08;2.78;;;17.50;85.20;;;;;;5036404;28;20050;-87
2021/05/23 05:14:24;;;;;;;3.38;3.08;;;17.40;85.30;;;;;;5034384;28;20025;-82
2021/05/23 05:16:50;;;;;;;3.38;2.75;;;17.40;85.50;;;;;;5033259;28;20025;-84
2021/05/23 05:19:16;;;;;;;4.68;3.40;;;17.40;85.80;;;;;;5033173;28;20045;-81
2021/05/23 05:21:42;;;;;;;2.92;2.70;;;17.40;85.90;;;;;;5033069;28;20083;-82
2021/05/23 05:24:08;;;;;;;4.05;2.90;;;17.30;86.20;;;;;;5034334;28;20057;-79
2021/05/23 05:26:34;;;;;;;5.32;2.92;;;17.40;86.30;;;;;;5033994;28;20026;-82
2021/05/23 05:28:59;;;;;;;3.45;2.88;;;17.30;86.40;;;;;;5033968;28;20036;-83
2021/05/23 05:31:25;;;;;;;3.92;2.50;;;17.40;86.50;;;;;;5034136;28;20031;-84
2021/05/23 05:33:51;;;;;;;3.50;2.80;;;17.40;86.90;;;;;;5034455;28;20021;-82
2021/05/23 05:36:16;;;;;;;2.50;2.30;;;17.50;86.80;;;;;;5034024;28;20096;-83
2021/05/23 05:38:42;;;;;;;4.10;2.78;;;17.60;86.80;;;;;;5033991;28;20479;-82
2021/05/23 05:41:08;;;;;;;2.97;2.67;;;17.70;86.40;;;;;;5033119;28;20106;-83
2021/05/23 05:43:34;;;;;;;3.97;2.70;;;17.70;86.30;;;;;;5032605;28;20025;-89
2021/05/23 05:45:59;;;;;;;3.38;2.53;;;17.80;86.30;;;;;;5032766;28;20067;-84
2021/05/23 05:48:25;;;;;;;3.85;2.75;;;17.90;86.20;;;;;;5032876;28;20029;-85
2021/05/23 05:50:51;;;;;;;3.17;2.75;;;17.90;86.00;;;;;;5033712;28;20024;-82
2021/05/23 05:53:16;;;;;;;3.15;2.80;;;18.00;85.90;;;;;;5033010;28;20030;-86
2021/05/23 05:55:42;;;;;;;2.95;2.65;;;18.20;85.80;;;;;;5032755;28;20036;-84
2021/05/23 05:58:08;;;;;;;3.55;2.92;;;18.30;85.20;;;;;;5032533;28;20112;-82
2021/05/23 06:00:33;;;;;;;2.90;2.60;;;18.40;84.90;;;;;;5033581;28;20071;-88
2021/05/23 06:03:01;;;;;;;3.22;2.60;;;18.50;84.70;;;;;;5032569;28;20379;-81
2021/05/23 06:05:27;;;;;;;3.40;2.55;;;18.50;84.20;;;;;;5033682;28;20201;-84
2021/05/23 06:07:52;;;;;;;5.88;2.90;;;18.70;84.10;;;;;;5033531;28;20045;-84
2021/05/23 06:10:18;;;;;;;3.35;2.97;;;18.70;84.00;;;;;;5039121;28;20053;-82
2021/05/23 06:12:44;;;;;;;4.57;2.65;;;18.90;84.20;;;;;;5073749;28;20029;-85
2021/05/23 06:15:11;;;;;;;3.03;2.70;;;19.00;83.40;;;;;;5073759;28;20024;-84
2021/05/23 06:17:37;;;;;;;5.03;2.90;;;19.10;82.90;;;;;;5055745;28;20024;-93
2021/05/23 06:20:05;;;;;;;3.15;2.70;;;19.10;82.70;;;;;;5074119;28;20028;-84
2021/05/23 06:22:31;;;;;;;2.45;2.25;;;19.20;82.50;;;;;;5074011;28;20078;-95
2021/05/23 06:24:57;;;;;;;3.20;2.28;;;19.10;82.50;;;;;;5074168;28;20028;-85
2021/05/23 06:27:22;;;;;;;2.85;2.28;;;19.20;82.50;;;;;;5073804;28;20162;-83
2021/05/23 06:29:48;;;;;;;2.70;2.50;;;19.20;82.50;;;;;;5073634;28;20036;-92
2021/05/23 06:32:14;;;;;;;2.75;2.38;;;19.20;82.20;;;;;;5073901;28;20021;-94
2021/05/23 06:34:40;;;;;;;26.55;8.57;;;19.30;82.20;;;;;;5073725;28;20056;-93
2021/05/23 14:10:45;;;;;;;5.78;4.53;;;30.60;38.70;;;;;;6058698;23;20002;-81
2021/05/23 14:13:11;;;;;;;4.10;2.15;;;30.80;37.80;;;;;;4966888;28;20150;-80
2021/05/23 14:15:37;;;;;;;1.70;1.60;;;31.00;38.00;;;;;;4955185;29;20102;-80
2021/05/23 14:18:06;;;;;;;2.22;1.30;;;31.00;38.60;;;;;;4955250;29;20027;-80
2021/05/23 14:20:33;;;;;;;;;;;31.20;38.20;;;;;;4960969;28;20118;-79
2021/05/23 14:23:00;;;;;;;5.45;3.70;;;31.00;38.40;;;;;;4936005;29;19911;-80
2021/05/23 14:25:25;;;;;;;3.78;2.50;;;31.00;38.20;;;;;;4936695;29;20028;-78
2021/05/23 14:27:52;;;;;;;3.28;2.10;;;30.70;37.70;;;;;;4936344;29;20027;-79
2021/05/23 14:30:18;;;;;;;15.70;3.90;;;30.30;37.90;;;;;;4959270;29;20541;-78
2021/05/23 14:32:45;;;;;;;2.78;2.10;;;29.60;38.50;;;;;;4959030;28;20114;-79
2021/05/23 14:35:12;;;;;;;31.30;17.83;;;29.00;38.90;;;;;;4958047;29;20019;-75
2021/05/23 14:37:38;;;;;;;7.10;4.95;;;28.40;39.40;;;;;;4957869;29;20027;-81
2021/05/23 14:40:05;;;;;;;7.78;4.38;;;27.90;39.90;;;;;;4959016;29;20030;-77
2021/05/23 14:42:31;;;;;;;16.50;9.57;;;27.40;40.40;;;;;;4957966;29;20123;-79
2021/05/23 14:44:57;;;;;;;39.15;29.40;;;27.00;41.20;;;;;;4957420;29;20039;-77
2021/05/23 14:47:22;;;;;;;13.95;11.68;;;26.60;41.70;;;;;;4957506;29;20185;-77
2021/05/23 14:49:54;;;;;;;4.60;3.47;;;26.30;42.10;;;;;;4958364;28;20449;-79
2021/05/23 14:52:21;;;;;;;5.00;4.50;;;26.00;42.50;;;;;;4958552;29;20106;-78
2021/05/23 14:54:48;;;;;;;2.78;2.53;;;25.80;43.00;;;;;;4958382;29;20027;-81
2021/05/23 14:57:15;;;;;;;4.72;3.80;;;25.60;42.80;;;;;;4958238;28;20082;-77
2021/05/23 14:59:43;;;;;;;4.43;3.05;;;25.40;42.50;;;;;;4957988;28;20020;-78
2021/05/23 15:02:13;;;;;;;2.60;2.05;;;25.20;42.60;;;;;;4958376;28;20050;-77
2021/05/23 15:04:39;;;;;;;;;;;25.00;43.00;;;;;;4958789;28;20038;-78
2021/05/23 15:07:05;;;;;;;4.72;2.97;;;24.80;42.70;;;;;;4958069;28;19910;-77
2021/05/23 15:09:30;;;;;;;5.72;3.22;;;24.70;43.00;;;;;;4957917;28;20027;-78
2021/05/23 15:11:56;;;;;;;3.50;2.67;;;24.60;43.20;;;;;;4956466;29;20513;-78
2021/05/23 15:14:23;;;;;;;3.40;2.25;;;24.50;43.50;;;;;;4957931;28;20062;-77
2021/05/23 15:16:49;;;;;;;1.65;1.48;;;24.40;43.70;;;;;;4957073;29;20078;-80
2021/05/23 15:19:15;;;;;;;4.60;1.60;;;24.30;44.20;;;;;;4957033;29;20063;-78
2021/05/23 15:21:41;;;;;;;1.73;1.50;;;24.20;44.50;;;;;;4958012;28;20046;-80
2021/05/23 15:24:07;;;;;;;4.32;2.97;;;24.10;44.70;;;;;;4958085;28;20039;-80
2021/05/23 15:26:57;;;;;;;10.02;2.10;;;24.10;44.50;;;;;;4956666;29;20117;-80
2021/05/23 15:32:09;;;;;;;4.65;2.10;;;23.90;44.80;;;;;;4957844;29;20054;-79
2021/05/23 15:34:35;;;;;;;6.53;3.53;;;23.90;44.90;;;;;;4956582;29;20027;-79
2021/05/23 15:37:01;;;;;;;4.20;2.75;;;23.80;44.90;;;;;;4957496;28;20019;-80
2021/05/23 15:39:27;;;;;;;41.08;26.92;;;23.70;45.00;;;;;;4956827;28;20049;-80
2021/05/23 15:41:53;;;;;;;6.68;4.95;;;23.60;45.10;;;;;;4956034;28;20035;-79
2021/05/23 15:44:19;;;;;;;4.18;2.90;;;23.50;45.30;;;;;;4957855;29;20043;-80
2021/05/23 15:46:45;;;;;;;14.32;6.88;;;23.50;45.70;;;;;;4957700;29;20054;-80
2021/05/23 15:49:11;;;;;;;13.45;6.78;;;23.40;46.80;;;;;;4956468;29;20415;-80
2021/05/23 15:51:38;;;;;;;10.43;4.40;;;23.40;46.90;;;;;;4972000;28;20027;-79
2021/05/23 15:54:05;;;;;;;5.65;3.63;;;23.30;47.10;;;;;;4956185;29;20245;-80
2021/05/23 15:56:31;;;;;;;2.80;2.13;;;23.20;47.20;;;;;;4957277;29;20027;-80
2021/05/23 15:58:56;;;;;;;3.50;1.92;;;23.10;47.10;;;;;;4957469;29;20074;-82
2021/05/23 16:01:24;;;;;;;3.08;1.80;;;23.00;47.20;;;;;;4957270;29;20043;-80
2021/05/23 16:03:51;;;;;;;3.75;1.90;;;23.00;47.20;;;;;;4957245;29;20023;-83
2021/05/23 16:06:20;;;;;;;3.15;2.10;;;22.90;47.50;;;;;;4957413;28;20043;-83
2021/05/23 16:08:46;;;;;;;4.15;2.30;;;22.90;47.70;;;;;;4957232;29;20023;-83
2021/05/23 16:11:15;;;;;;;3.65;2.25;;;22.80;47.60;;;;;;4957056;28;20125;-83
2021/05/23 16:13:41;;;;;;;4.00;2.88;;;22.70;47.70;;;;;;4957056;29;20046;-80
2021/05/23 16:16:07;;;;;;;5.55;3.42;;;22.70;47.80;;;;;;4957548;28;20110;-79
2021/05/23 16:18:33;;;;;;;4.13;3.10;;;22.70;48.20;;;;;;4957265;28;20196;-80
2021/05/23 16:20:59;;;;;;;5.60;2.80;;;22.60;48.20;;;;;;4957205;28;20023;-79
2021/05/23 16:23:25;;;;;;;5.00;2.78;;;22.60;48.30;;;;;;4957164;28;20019;-80
2021/05/23 16:25:51;;;;;;;5.47;2.60;;;22.50;48.40;;;;;;4957303;29;20094;-79
2021/05/23 16:28:16;;;;;;;10.30;6.30;;;22.50;48.50;;;;;;4957021;28;20098;-80
2021/05/23 16:30:42;;;;;;;5.03;3.13;;;22.40;48.70;;;;;;4956909;28;20031;-79
2021/05/23 16:33:07;;;;;;;5.28;2.67;;;22.40;48.60;;;;;;4956444;28;20469;-79
2021/05/23 16:35:33;;;;;;;4.53;2.78;;;22.40;49.00;;;;;;4957006;29;20118;-80
2021/05/23 16:37:59;;;;;;;5.15;2.55;;;22.40;49.90;;;;;;4956459;28;20023;-79
2021/05/23 16:40:25;;;;;;;3.25;2.33;;;22.30;50.70;;;;;;4956928;29;20484;-80
2021/05/23 16:42:51;;;;;;;3.35;2.38;;;22.30;50.90;;;;;;4956862;28;20038;-79
2021/05/23 16:45:16;;;;;;;4.05;2.38;;;22.20;51.20;;;;;;4956827;29;20027;-79
2021/05/23 16:47:45;;;;;;;2.80;2.47;;;22.10;51.60;;;;;;4971575;28;20027;-80
2021/05/23 16:50:17;;;;;;;3.22;2.30;;;22.10;52.00;;;;;;4956291;28;20023;-80
2021/05/23 16:52:47;;;;;;;4.63;2.50;;;22.10;52.50;;;;;;4955727;29;20031;-79
2021/05/23 16:55:14;;;;;;;4.60;2.58;;;22.00;52.70;;;;;;4956629;29;20026;-80
2021/05/23 16:57:40;;;;;;;4.47;3.42;;;22.00;53.20;;;;;;4956363;29;20354;-80
2021/05/23 17:00:07;;;;;;;3.92;3.00;;;22.00;52.50;;;;;;4956574;28;20030;-81
2021/05/23 17:02:33;;;;;;;4.25;3.47;;;21.90;53.10;;;;;;4956470;29;20023;-81
2021/05/23 17:04:59;;;;;;;4.97;3.50;;;21.80;53.30;;;;;;4956570;29;20047;-81
2021/05/23 17:07:25;;;;;;;5.05;3.53;;;21.80;53.90;;;;;;4956307;29;20372;-81
2021/05/23 17:09:53;;;;;;;5.80;3.80;;;21.70;54.20;;;;;;4956482;28;20027;-81
2021/05/23 17:12:19;;;;;;;4.60;3.63;;;21.70;54.20;;;;;;4970729;28;20527;-81
2021/05/23 17:14:45;;;;;;;4.57;3.78;;;21.60;54.40;;;;;;4956541;29;20031;-81
2021/05/23 17:17:11;;;;;;;5.97;4.15;;;21.60;55.10;;;;;;4956332;29;20111;-81
2021/05/23 17:19:37;;;;;;;6.53;4.18;;;21.60;55.10;;;;;;4956216;29;20114;-81
2021/05/23 17:22:05;;;;;;;10.98;4.95;;;21.50;55.50;;;;;;4956181;29;20078;-80
2021/05/23 17:24:33;;;;;;;8.30;4.55;;;21.40;55.90;;;;;;4956567;29;20057;-81
2021/05/23 17:26:59;;;;;;;8.35;4.70;;;21.40;56.20;;;;;;4954946;29;20027;-80
2021/05/23 17:29:25;;;;;;;7.88;4.53;;;21.40;56.60;;;;;;4956069;29;20031;-81
2021/05/23 17:31:55;;;;;;;9.52;4.80;;;21.30;56.70;;;;;;4955714;28;20123;-81
2021/05/23 17:34:21;;;;;;;;;;;21.30;57.20;;;;;;4956496;28;20128;-81
2021/05/23 17:36:47;;;;;;;9.38;4.70;;;21.20;58.20;;;;;;4954070;28;20009;-82
2021/05/23 17:39:13;;;;;;;11.25;6.00;;;21.20;57.80;;;;;;4955546;29;20081;-83
2021/05/23 17:41:39;;;;;;;14.13;6.55;;;21.10;58.40;;;;;;4955341;29;20035;-81
2021/05/23 17:44:05;;;;;;;11.88;6.18;;;21.10;58.30;;;;;;4955216;29;20063;-81
2021/05/23 17:46:30;;;;;;;16.67;9.27;;;21.00;58.50;;;;;;4955520;29;20377;-81
2021/05/23 17:48:56;;;;;;;46.30;30.83;;;21.00;58.90;;;;;;4955304;29;20031;-82
2021/05/23 17:51:22;;;;;;;71.88;46.65;;;21.00;59.30;;;;;;4955193;29;20572;-82
2021/05/23 17:53:48;;;;;;;116.22;76.03;;;21.00;59.20;;;;;;4955214;29;20139;-82
2021/05/23 17:56:14;;;;;;;54.85;35.70;;;21.00;59.20;;;;;;4955451;29;20031;-82
2021/05/23 17:58:39;;;;;;;99.10;64.18;;;20.90;59.60;;;;;;4955346;29;20358;-81
2021/05/23 18:01:05;;;;;;;47.72;31.00;;;20.90;59.50;;;;;;4953963;29;20027;-82
2021/05/23 18:03:31;;;;;;;33.22;19.45;;;20.90;59.70;;;;;;4953559;28;20042;-83
2021/05/23 18:05:57;;;;;;;29.23;16.83;;;20.90;60.10;;;;;;4954865;29;20026;-82
2021/05/23 18:08:22;;;;;;;28.73;17.20;;;20.90;60.50;;;;;;4954742;29;20032;-83
2021/05/23 18:10:48;;;;;;;26.88;17.88;;;20.90;60.90;;;;;;4955021;29;20354;-82
2021/05/23 18:13:14;;;;;;;22.63;15.30;;;20.80;61.00;;;;;;4954483;29;20484;-82
2021/05/23 18:15:42;;;;;;;35.60;23.23;;;20.80;61.90;;;;;;4950337;29;20034;-82
2021/05/23 18:18:09;;;;;;;31.70;21.67;;;20.80;61.80;;;;;;4935811;29;20489;-82
2021/05/23 18:20:35;;;;;;;29.08;18.02;;;20.80;62.30;;;;;;4953400;29;20116;-82
2021/05/23 18:23:01;;;;;;;18.25;12.80;;;20.80;62.00;;;;;;4954247;29;20039;-81
2021/05/23 18:25:27;;;;;;;21.35;13.00;;;20.80;62.90;;;;;;4954780;29;20376;-80
2021/05/23 18:27:55;;;;;;;14.55;10.38;;;20.80;62.70;;;;;;4954771;28;20030;-80
2021/05/23 18:30:21;;;;;;;11.43;8.05;;;20.70;62.40;;;;;;4954867;29;20031;-81
2021/05/23 18:32:47;;;;;;;9.90;7.18;;;20.70;62.50;;;;;;4954591;28;20376;-82
2021/05/23 18:35:14;;;;;;;12.02;6.47;;;20.60;62.60;;;;;;4954813;29;20027;-83
2021/05/23 18:37:42;;;;;;;24.30;7.82;;;20.60;63.20;;;;;;4954653;29;20086;-83
2021/05/23 18:40:12;;;;;;;9.73;5.40;;;20.60;63.60;;;;;;4954787;28;20477;-80
2021/05/23 18:42:38;;;;;;;;;;;20.50;63.40;;;;;;4955245;28;20027;-80
2021/05/23 18:45:09;;;;;;;6.85;4.75;;;20.40;64.20;;;;;;4955119;28;19915;-79
2021/05/23 18:47:37;;;;;;;6.38;4.55;;;20.40;63.00;;;;;;4954885;28;20420;-80
2021/05/23 18:50:03;;;;;;;8.30;4.82;;;20.40;62.90;;;;;;4955084;28;20027;-80
2021/05/23 18:52:30;;;;;;;9.77;5.10;;;20.40;62.90;;;;;;4955033;28;20027;-80
2021/05/23 18:54:58;;;;;;;8.57;4.97;;;20.40;63.20;;;;;;4955051;28;20026;-79
2021/05/23 18:57:24;;;;;;;6.40;5.03;;;20.30;63.60;;;;;;4955021;28;20030;-79
2021/05/23 18:59:51;;;;;;;6.80;4.93;;;20.30;63.40;;;;;;4954894;28;20102;-79
2021/05/23 19:02:17;;;;;;;7.93;5.55;;;20.20;63.60;;;;;;4955099;28;20077;-78
2021/05/23 19:04:43;;;;;;;9.57;5.30;;;20.20;63.60;;;;;;4954996;28;20035;-78
2021/05/23 19:07:09;;;;;;;8.68;5.18;;;20.20;65.10;;;;;;4954964;28;20034;-78
2021/05/23 19:09:35;;;;;;;10.70;5.32;;;20.10;64.80;;;;;;4954895;29;20405;-78
2021/05/23 19:12:00;;;;;;;15.00;5.57;;;20.10;65.20;;;;;;4954689;28;20047;-77
2021/05/23 19:14:26;;;;;;;15.35;5.68;;;20.00;65.10;;;;;;4955628;28;20031;-78
2021/05/23 19:16:52;;;;;;;11.55;5.63;;;19.90;65.70;;;;;;4958866;28;20023;-77
2021/05/23 19:19:17;;;;;;;12.10;5.93;;;19.90;66.00;;;;;;4958394;29;20023;-76
2021/05/23 19:21:43;;;;;;;10.43;5.43;;;19.80;66.50;;;;;;4956871;29;20147;-77
2021/05/23 19:24:09;;;;;;;14.23;7.85;;;19.70;67.10;;;;;;4958290;29;20078;-76
2021/05/23 19:26:34;;;;;;;65.72;32.15;;;19.60;67.10;;;;;;4958042;29;20035;-77
2021/05/23 19:29:00;;;;;;;59.22;27.50;;;19.60;67.20;;;;;;4958281;29;20023;-77
2021/05/23 19:31:26;;;;;;;53.95;25.83;;;19.50;67.70;;;;;;4958169;29;20030;-76
2021/05/23 19:33:52;;;;;;;50.80;24.50;;;19.40;68.00;;;;;;4958186;29;20031;-77
2021/05/23 19:36:19;;;;;;;40.97;18.77;;;19.30;68.20;;;;;;4957284;29;20038;-76
2021/05/23 19:38:45;;;;;;;31.52;14.43;;;19.30;68.20;;;;;;4957042;29;20034;-76
2021/05/23 19:41:10;;;;;;;24.52;11.32;;;19.20;68.30;;;;;;4958074;29;20027;-76
2021/05/23 19:43:36;;;;;;;19.33;10.63;;;19.10;68.50;;;;;;4957959;29;20526;-76
2021/05/23 19:46:02;;;;;;;19.77;9.70;;;19.00;68.90;;;;;;4958272;29;20031;-76
2021/05/23 19:48:28;;;;;;;16.00;9.10;;;18.90;69.30;;;;;;4958128;29;20473;-76
2021/05/23 19:50:54;;;;;;;15.43;8.57;;;18.90;70.00;;;;;;4958302;29;20106;-76
2021/05/23 19:53:20;;;;;;;16.63;8.60;;;18.90;70.10;;;;;;4958344;29;20071;-76
2021/05/23 19:55:46;;;;;;;15.98;9.25;;;18.90;70.50;;;;;;4956639;29;20031;-76
2021/05/23 19:58:12;;;;;;;17.95;10.15;;;18.90;70.20;;;;;;4958349;29;20377;-76
2021/05/23 20:00:38;;;;;;;27.42;14.00;;;18.80;70.50;;;;;;4958435;29;20114;-76
2021/05/23 20:03:04;;;;;;;34.08;16.00;;;18.80;70.80;;;;;;4958127;29;20039;-76
2021/05/23 20:05:31;;;;;;;66.85;30.75;;;18.80;71.30;;;;;;4958124;29;20103;-76
2021/05/23 20:07:59;;;;;;;71.30;29.25;;;18.70;71.50;;;;;;4958260;29;20037;-76
2021/05/23 20:10:26;;;;;;;91.28;37.90;;;18.70;71.70;;;;;;4958016;29;20409;-76
2021/05/23 20:12:52;;;;;;;87.82;36.25;;;18.60;71.80;;;;;;4957197;28;20054;-76
2021/05/23 20:15:18;;;;;;;72.53;30.67;;;18.50;72.40;;;;;;4957451;29;20031;-76
2021/05/23 20:17:45;;;;;;;56.08;25.27;;;18.40;72.80;;;;;;4957808;29;20361;-76
2021/05/23 20:20:12;;;;;;;54.03;23.35;;;18.40;73.00;;;;;;4958038;28;20484;-76